Time;durP1;ratioP1;P1;durP2;ratioP2;P2;SDS_P1;SDS_P2;PMS_P1;PMS_P2;Temp;Humidity;BMP_temperature;BMP_pressure;BME280_temperature;BME280_humidity;BME280_pressure;Samples;Min_cycle;Max_cycle;Signal;HPM_P1;HPM_P2
2023/11/27 00:00:42;;;;;;;;;;;;;;;;;;2212414;58;1809;-26
2023/11/27 00:03:12;;;;;;;;;;;;;;;;;;2212937;59;2354;-25
2023/11/27 00:05:43;;;;;;;;;;;;;;;;;;2212014;66;1796;-25
2023/11/27 00:08:13;;;;;;;;;;;;;;;;;;2209294;66;1966;-25
2023/11/27 00:10:43;;;;;;;;;;;;;;;;;;2208996;66;1819;-26
2023/11/27 00:13:13;;;;;;;;;;;;;;;;;;2213514;66;2423;-25
2023/11/27 00:15:43;;;;;;;;;;;;;;;;;;2208917;66;2307;-26
2023/11/27 00:18:14;;;;;;;;;;;;;;;;;;2212373;59;2900;-25
2023/11/27 00:20:44;;;;;;;;;;;;;;;;;;2208506;66;2946;-26
2023/11/27 00:23:14;;;;;;;;;;;;;;;;;;2209702;59;2044;-25
2023/11/27 00:25:44;;;;;;;;;;;;;;;;;;2206770;66;1787;-26
2023/11/27 00:28:15;;;;;;;;;;;;;;;;;;2212498;58;2299;-26
2023/11/27 00:30:45;;;;;;;;;;;;;;;;;;2209535;59;2433;-26
2023/11/27 00:33:16;;;;;;;;;;;;;;;;;;2209367;58;2272;-25
2023/11/27 00:35:46;;;;;;;;;;;;;;;;;;2208893;59;1540;-26
2023/11/27 00:38:16;;;;;;;;;;;;;;;;;;2213419;58;1746;-25
2023/11/27 00:40:46;;;;;;;;;;;;;;;;;;2212536;58;2113;-26
2023/11/27 00:43:17;;;;;;;;;;;;;;;;;;2210419;58;1854;-25
2023/11/27 00:45:47;;;;;;;;;;;;;;;;;;2210002;66;1883;-26
2023/11/27 00:48:17;;;;;;;;;;;;;;;;;;2214270;59;1947;-26
2023/11/27 00:50:47;;;;;;;;;;;;;;;;;;2211352;66;1887;-26
2023/11/27 00:53:18;;;;;;;;;;;;;;;;;;2214432;59;1940;-26
2023/11/27 00:55:48;;;;;;;;;;;;;;;;;;2214566;66;1899;-26
2023/11/27 00:58:18;;;;;;;;;;;;;;;;;;2209419;66;2341;-26
2023/11/27 01:00:49;;;;;;;;;;;;;;;;;;2213029;59;2346;-26
2023/11/27 01:03:19;;;;;;;;;;;;;;;;;;2213917;66;2519;-26
2023/11/27 01:05:49;;;;;;;;;;;;;;;;;;2212707;59;2581;-26
2023/11/27 01:08:19;;;;;;;;;;;;;;;;;;2209392;59;1900;-24
2023/11/27 01:10:50;;;;;;;;;;;;;;;;;;2208884;66;1868;-24
2023/11/27 01:13:20;;;;;;;;;;;;;;;;;;2209000;59;1907;-25
2023/11/27 01:15:54;;;;;;;;;;;;;;;;;;2211902;66;3713;-26
2023/11/27 01:18:24;;;;;;;;;;;;;;;;;;2206293;59;2017;-26
2023/11/27 01:20:55;;;;;;;;;;;;;;;;;;2207487;59;2413;-26
2023/11/27 01:23:25;;;;;;;;;;;;;;;;;;2212844;59;2224;-26
2023/11/27 01:25:56;;;;;;;;;;;;;;;;;;2208999;59;2334;-26
2023/11/27 01:28:26;;;;;;;;;;;;;;;;;;2209057;59;2179;-26
2023/11/27 01:30:56;;;;;;;;;;;;;;;;;;2208895;66;3227;-26
2023/11/27 01:33:26;;;;;;;;;;;;;;;;;;2211773;58;2080;-26
2023/11/27 01:35:57;;;;;;;;;;;;;;;;;;2208592;59;2210;-26
2023/11/27 01:38:27;;;;;;;;;;;;;;;;;;2212445;66;1999;-26
2023/11/27 01:40:57;;;;;;;;;;;;;;;;;;2212442;58;1784;-26
2023/11/27 01:43:27;;;;;;;;;;;;;;;;;;2212198;59;1679;-26
2023/11/27 01:46:17;;;;;;;;;;;;;;;;;;2206234;59;1847;-25
2023/11/27 01:48:48;;;;;;;;;;;;;;;;;;2207993;66;1944;-26
2023/11/27 01:51:18;;;;;;;;;;;;;;;;;;2205465;66;1646;-26
2023/11/27 01:53:52;;;;;;;;;;;;;;;;;;2208846;59;2298;-26
2023/11/27 01:56:24;;;;;;;;;;;;;;;;;;2212591;66;1949;-26
2023/11/27 01:58:55;;;;;;;;;;;;;;;;;;2205160;59;1990;-26
2023/11/27 02:01:26;;;;;;;;;;;;;;;;;;2211043;58;1936;-26
2023/11/27 02:03:56;;;;;;;;;;;;;;;;;;2212198;66;2441;-26
2023/11/27 02:06:27;;;;;;;;;;;;;;;;;;2207790;66;2105;-26
2023/11/27 02:08:57;;;;;;;;;;;;;;;;;;2208593;59;2325;-26
2023/11/27 02:11:27;;;;;;;;;;;;;;;;;;2212050;59;2556;-26
2023/11/27 02:13:57;;;;;;;;;;;;;;;;;;2212828;59;2051;-26
2023/11/27 02:16:28;;;;;;;;;;;;;;;;;;2212745;59;2384;-26
2023/11/27 02:18:58;;;;;;;;;;;;;;;;;;2212339;59;2320;-25
2023/11/27 02:21:28;;;;;;;;;;;;;;;;;;2211541;59;2703;-25
2023/11/27 02:23:58;;;;;;;;;;;;;;;;;;2208171;59;2105;-25
2023/11/27 02:26:29;;;;;;;;;;;;;;;;;;2208417;59;1991;-26
2023/11/27 02:28:59;;;;;;;;;;;;;;;;;;2208553;58;2198;-26
2023/11/27 02:31:30;;;;;;;;;;;;;;;;;;2206682;59;3515;-26
2023/11/27 02:34:00;;;;;;;;;;;;;;;;;;2212761;58;1809;-26
2023/11/27 02:36:36;;;;;;;;;;;;;;;;;;2205518;66;1925;-26
2023/11/27 02:39:06;;;;;;;;;;;;;;;;;;2209204;59;1748;-26
2023/11/27 02:41:37;;;;;;;;;;;;;;;;;;2212062;58;2058;-26
2023/11/27 02:44:07;;;;;;;;;;;;;;;;;;2212018;59;2275;-26
2023/11/27 02:46:37;;;;;;;;;;;;;;;;;;2208617;59;1919;-25
2023/11/27 02:49:07;;;;;;;;;;;;;;;;;;2206119;66;1590;-25
2023/11/27 02:51:39;;;;;;;;;;;;;;;;;;2212018;66;2319;-24
2023/11/27 02:54:10;;;;;;;;;;;;;;;;;;2212526;59;1813;-24
2023/11/27 02:56:41;;;;;;;;;;;;;;;;;;2208381;66;2082;-24
2023/11/27 02:59:11;;;;;;;;;;;;;;;;;;2212497;59;2380;-25
2023/11/27 03:01:42;;;;;;;;;;;;;;;;;;2209201;66;2362;-24
2023/11/27 03:04:12;;;;;;;;;;;;;;;;;;2208462;59;2329;-25
2023/11/27 03:06:43;;;;;;;;;;;;;;;;;;2207953;59;2115;-25
2023/11/27 03:09:16;;;;;;;;;;;;;;;;;;2211962;59;1627;-24
2023/11/27 03:11:46;;;;;;;;;;;;;;;;;;2211989;59;1840;-24
2023/11/27 03:14:16;;;;;;;;;;;;;;;;;;2212161;59;2238;-25
2023/11/27 03:16:46;;;;;;;;;;;;;;;;;;2208023;66;1788;-24
2023/11/27 03:19:16;;;;;;;;;;;;;;;;;;2208548;59;1997;-25
2023/11/27 03:21:47;;;;;;;;;;;;;;;;;;2207692;59;2436;-24
2023/11/27 03:24:17;;;;;;;;;;;;;;;;;;2211586;59;2773;-25
2023/11/27 03:26:47;;;;;;;;;;;;;;;;;;2208678;59;1955;-25
2023/11/27 03:29:18;;;;;;;;;;;;;;;;;;2208064;59;2284;-25
2023/11/27 03:31:48;;;;;;;;;;;;;;;;;;2211572;58;2472;-24
2023/11/27 03:34:18;;;;;;;;;;;;;;;;;;2212352;66;1795;-24
2023/11/27 03:36:48;;;;;;;;;;;;;;;;;;2208283;66;1895;-25
2023/11/27 03:39:19;;;;;;;;;;;;;;;;;;2208623;59;1898;-25
2023/11/27 03:41:52;;;;;;;;;;;;;;;;;;2205692;59;1879;-24
2023/11/27 03:44:22;;;;;;;;;;;;;;;;;;2211567;59;1724;-25
2023/11/27 03:46:53;;;;;;;;;;;;;;;;;;2207856;58;2568;-25
2023/11/27 03:49:23;;;;;;;;;;;;;;;;;;2212159;59;1876;-25
2023/11/27 03:51:53;;;;;;;;;;;;;;;;;;2211785;59;1794;-25
2023/11/27 03:54:24;;;;;;;;;;;;;;;;;;2212714;66;1855;-24
2023/11/27 03:56:54;;;;;;;;;;;;;;;;;;2211723;59;1918;-25
2023/11/27 03:59:24;;;;;;;;;;;;;;;;;;2212125;66;2013;-24
2023/11/27 04:01:55;;;;;;;;;;;;;;;;;;2205642;59;2323;-24
2023/11/27 04:04:25;;;;;;;;;;;;;;;;;;2209095;66;1986;-24
2023/11/27 04:06:55;;;;;;;;;;;;;;;;;;2207860;66;1933;-24
2023/11/27 04:09:25;;;;;;;;;;;;;;;;;;2212330;66;1866;-25
2023/11/27 04:11:56;;;;;;;;;;;;;;;;;;2208553;66;2311;-25
2023/11/27 04:14:26;;;;;;;;;;;;;;;;;;2212577;58;2411;-24
2023/11/27 04:16:57;;;;;;;;;;;;;;;;;;2208250;66;1969;-25
2023/11/27 04:19:27;;;;;;;;;;;;;;;;;;2208632;58;2106;-24
2023/11/27 04:21:57;;;;;;;;;;;;;;;;;;2208620;66;2881;-25
2023/11/27 04:24:27;;;;;;;;;;;;;;;;;;2211356;59;3137;-25
2023/11/27 04:26:58;;;;;;;;;;;;;;;;;;2211710;59;1932;-24
2023/11/27 04:29:28;;;;;;;;;;;;;;;;;;2210632;59;2249;-25
2023/11/27 04:31:58;;;;;;;;;;;;;;;;;;2210440;58;1891;-25
2023/11/27 04:34:28;;;;;;;;;;;;;;;;;;2212636;59;1641;-25
2023/11/27 04:36:59;;;;;;;;;;;;;;;;;;2212859;59;1689;-24
2023/11/27 04:39:29;;;;;;;;;;;;;;;;;;2214541;59;2189;-24
2023/11/27 04:41:59;;;;;;;;;;;;;;;;;;2213803;58;2389;-24
2023/11/27 04:44:29;;;;;;;;;;;;;;;;;;2210681;59;2410;-25
2023/11/27 04:47:00;;;;;;;;;;;;;;;;;;2208946;59;2235;-25
2023/11/27 04:49:31;;;;;;;;;;;;;;;;;;2213623;58;1951;-24
2023/11/27 04:52:01;;;;;;;;;;;;;;;;;;2209726;66;2513;-25
2023/11/27 04:54:31;;;;;;;;;;;;;;;;;;2217008;53;3878;-16
2023/11/27 04:57:02;;;;;;;;;;;;;;;;;;2214450;66;1752;-17
2023/11/27 04:59:32;;;;;;;;;;;;;;;;;;2215104;59;2548;-17
2023/11/27 05:02:03;;;;;;;;;;;;;;;;;;2215907;58;2405;-17
2023/11/27 05:04:36;;;;;;;;;;;;;;;;;;2211969;59;2252;-17
2023/11/27 05:07:06;;;;;;;;;;;;;;;;;;2215031;66;2515;-18
2023/11/27 05:09:39;;;;;;;;;;;;;;;;;;2212540;59;2002;-17
2023/11/27 05:12:10;;;;;;;;;;;;;;;;;;2215072;66;1706;-17
2023/11/27 05:14:41;;;;;;;;;;;;;;;;;;2215250;58;2477;-16
2023/11/27 05:17:12;;;;;;;;;;;;;;;;;;2214725;59;1994;-17
2023/11/27 05:19:42;;;;;;;;;;;;;;;;;;2211443;59;1755;-16
2023/11/27 05:22:14;;;;;;;;;;;;;;;;;;2212969;66;2485;-17
2023/11/27 05:24:44;;;;;;;;;;;;;;;;;;2214898;59;2375;-17
2023/11/27 05:27:14;;;;;;;;;;;;;;;;;;2212290;59;1992;-16
2023/11/27 05:29:44;;;;;;;;;;;;;;;;;;2211840;59;2582;-16
2023/11/27 05:32:15;;;;;;;;;;;;;;;;;;2216805;58;2416;-17
2023/11/27 05:34:45;;;;;;;;;;;;;;;;;;2215651;59;1781;-16
2023/11/27 05:37:16;;;;;;;;;;;;;;;;;;2215542;66;2304;-16
2023/11/27 05:39:46;;;;;;;;;;;;;;;;;;2215250;59;2060;-17
2023/11/27 05:42:20;;;;;;;;;;;;;;;;;;2213020;59;1297;-17
2023/11/27 05:44:50;;;;;;;;;;;;;;;;;;2215132;66;2435;-16
2023/11/27 05:47:21;;;;;;;;;;;;;;;;;;2216314;59;1929;-16
2023/11/27 05:49:52;;;;;;;;;;;;;;;;;;2211181;59;2234;-16
2023/11/27 05:52:23;;;;;;;;;;;;;;;;;;2216193;66;1975;-16
2023/11/27 05:54:53;;;;;;;;;;;;;;;;;;2215732;66;2445;-16
2023/11/27 05:57:23;;;;;;;;;;;;;;;;;;2216368;66;1781;-16
2023/11/27 05:59:54;;;;;;;;;;;;;;;;;;2215427;66;2444;-16
2023/11/27 06:02:26;;;;;;;;;;;;;;;;;;2209281;59;2334;-16
2023/11/27 06:04:56;;;;;;;;;;;;;;;;;;2214962;58;2045;-17
2023/11/27 06:07:27;;;;;;;;;;;;;;;;;;2211971;66;1978;-16
2023/11/27 06:09:58;;;;;;;;;;;;;;;;;;2211992;59;1879;-16
2023/11/27 06:12:28;;;;;;;;;;;;;;;;;;2212140;59;2165;-17
2023/11/27 06:14:59;;;;;;;;;;;;;;;;;;2210446;59;2152;-16
2023/11/27 06:17:29;;;;;;;;;;;;;;;;;;2212262;66;1634;-17
2023/11/27 06:19:59;;;;;;;;;;;;;;;;;;2215100;59;2086;-17
2023/11/27 06:22:32;;;;;;;;;;;;;;;;;;2214870;58;1964;-16
2023/11/27 06:25:02;;;;;;;;;;;;;;;;;;2210992;59;2754;-16
2023/11/27 06:27:32;;;;;;;;;;;;;;;;;;2211262;58;2551;-16
2023/11/27 06:30:03;;;;;;;;;;;;;;;;;;2211028;59;2166;-16
2023/11/27 06:32:33;;;;;;;;;;;;;;;;;;2216152;58;1735;-16
2023/11/27 06:35:04;;;;;;;;;;;;;;;;;;2214956;58;2619;-16
2023/11/27 06:37:34;;;;;;;;;;;;;;;;;;2214401;59;1900;-17
2023/11/27 06:40:05;;;;;;;;;;;;;;;;;;2214711;58;2279;-17
2023/11/27 06:42:35;;;;;;;;;;;;;;;;;;2214439;66;1855;-16
2023/11/27 06:45:06;;;;;;;;;;;;;;;;;;2214467;58;2103;-16
2023/11/27 06:47:37;;;;;;;;;;;;;;;;;;2211015;59;2227;-16
2023/11/27 06:50:07;;;;;;;;;;;;;;;;;;2214895;58;1971;-17
2023/11/27 06:52:37;;;;;;;;;;;;;;;;;;2215389;66;2059;-17
2023/11/27 06:55:09;;;;;;;;;;;;;;;;;;2214751;58;2427;-16
2023/11/27 06:57:40;;;;;;;;;;;;;;;;;;2214773;59;2228;-16
2023/11/27 07:00:10;;;;;;;;;;;;;;;;;;2211598;60;1785;-16
2023/11/27 07:02:41;;;;;;;;;;;;;;;;;;2214103;58;2314;-17
2023/11/27 07:05:11;;;;;;;;;;;;;;;;;;2210921;59;2304;-17
2023/11/27 07:07:41;;;;;;;;;;;;;;;;;;2214203;58;2733;-16
2023/11/27 07:10:13;;;;;;;;;;;;;;;;;;2212788;58;2987;-16
2023/11/27 07:12:43;;;;;;;;;;;;;;;;;;2211211;59;1729;-16
2023/11/27 07:15:14;;;;;;;;;;;;;;;;;;2211798;59;1945;-17
2023/11/27 07:17:44;;;;;;;;;;;;;;;;;;2211812;66;1795;-17
2023/11/27 07:20:18;;;;;;;;;;;;;;;;;;2215153;59;2360;-17
2023/11/27 07:22:49;;;;;;;;;;;;;;;;;;2215071;58;2158;-16
2023/11/27 07:25:19;;;;;;;;;;;;;;;;;;2215621;58;2698;-17
2023/11/27 07:27:49;;;;;;;;;;;;;;;;;;2213471;58;2626;-17
2023/11/27 07:30:19;;;;;;;;;;;;;;;;;;2215868;58;2772;-16
2023/11/27 07:32:50;;;;;;;;;;;;;;;;;;2210951;58;2433;-17
2023/11/27 07:35:20;;;;;;;;;;;;;;;;;;2215458;66;1928;-17
2023/11/27 07:37:50;;;;;;;;;;;;;;;;;;2214358;58;2292;-18
2023/11/27 07:40:21;;;;;;;;;;;;;;;;;;2212273;58;2082;-17
2023/11/27 07:42:51;;;;;;;;;;;;;;;;;;2213657;58;2265;-17
2023/11/27 07:45:21;;;;;;;;;;;;;;;;;;2214651;59;1643;-17
2023/11/27 07:47:52;;;;;;;;;;;;;;;;;;2210958;58;2877;-17
2023/11/27 07:50:23;;;;;;;;;;;;;;;;;;2212294;58;2479;-17
2023/11/27 07:52:53;;;;;;;;;;;;;;;;;;2214060;58;2262;-17
2023/11/27 07:55:23;;;;;;;;;;;;;;;;;;2212400;59;2011;-17
2023/11/27 07:57:54;;;;;;;;;;;;;;;;;;2214069;58;2226;-17
2023/11/27 08:00:26;;;;;;;;;;;;;;;;;;2215511;58;1781;-17
2023/11/27 08:02:56;;;;;;;;;;;;;;;;;;2210929;59;2266;-17
2023/11/27 08:05:29;;;;;;;;;;;;;;;;;;2215410;58;2416;-17
2023/11/27 08:07:59;;;;;;;;;;;;;;;;;;2210645;58;2468;-17
2023/11/27 08:10:29;;;;;;;;;;;;;;;;;;2216658;58;1914;-19
2023/11/27 08:13:00;;;;;;;;;;;;;;;;;;2215991;58;2166;-19
2023/11/27 08:15:30;;;;;;;;;;;;;;;;;;2216199;58;2085;-19
2023/11/27 08:18:02;;;;;;;;;;;;;;;;;;2214940;58;1890;-19
2023/11/27 08:20:33;;;;;;;;;;;;;;;;;;2213641;59;1686;-19
2023/11/27 08:23:04;;;;;;;;;;;;;;;;;;2212131;66;2833;-19
2023/11/27 08:25:34;;;;;;;;;;;;;;;;;;2213527;66;2886;-19
2023/11/27 08:28:05;;;;;;;;;;;;;;;;;;2215359;58;2332;-19
2023/11/27 08:30:35;;;;;;;;;;;;;;;;;;2216972;58;2158;-19
2023/11/27 08:33:06;;;;;;;;;;;;;;;;;;2215936;58;2376;-19
2023/11/27 08:35:36;;;;;;;;;;;;;;;;;;2216163;66;2006;-20
2023/11/27 08:38:06;;;;;;;;;;;;;;;;;;2215734;66;1755;-19
2023/11/27 08:40:37;;;;;;;;;;;;;;;;;;2210048;59;1962;-19
2023/11/27 08:43:07;;;;;;;;;;;;;;;;;;2215052;58;2430;-19
2023/11/27 08:45:38;;;;;;;;;;;;;;;;;;2217065;59;1823;-19
2023/11/27 08:48:08;;;;;;;;;;;;;;;;;;2212468;59;2738;-19
2023/11/27 08:50:38;;;;;;;;;;;;;;;;;;2216814;66;2067;-19
2023/11/27 08:53:09;;;;;;;;;;;;;;;;;;2212024;58;2518;-19
2023/11/27 08:55:39;;;;;;;;;;;;;;;;;;2216503;66;2294;-19
2023/11/27 08:58:09;;;;;;;;;;;;;;;;;;2213509;58;2522;-19
2023/11/27 09:00:39;;;;;;;;;;;;;;;;;;2213541;58;2851;-19
2023/11/27 09:03:10;;;;;;;;;;;;;;;;;;2212560;59;2576;-19
2023/11/27 09:05:42;;;;;;;;;;;;;;;;;;2216433;58;1865;-19
2023/11/27 09:08:13;;;;;;;;;;;;;;;;;;2215618;58;2063;-19
2023/11/27 09:10:48;;;;;;;;;;;;;;;;;;2209457;66;2517;-17
2023/11/27 09:13:19;;;;;;;;;;;;;;;;;;2209192;66;2014;-17
2023/11/27 09:15:49;;;;;;;;;;;;;;;;;;2214643;58;2691;-17
2023/11/27 09:18:19;;;;;;;;;;;;;;;;;;2215137;58;2198;-17
2023/11/27 09:20:50;;;;;;;;;;;;;;;;;;2216116;58;3232;-17
2023/11/27 09:23:20;;;;;;;;;;;;;;;;;;2215843;58;1885;-17
2023/11/27 09:25:50;;;;;;;;;;;;;;;;;;2212625;66;1910;-17
2023/11/27 09:28:20;;;;;;;;;;;;;;;;;;2214973;58;2430;-17
2023/11/27 09:30:51;;;;;;;;;;;;;;;;;;2216237;58;2666;-17
2023/11/27 09:33:21;;;;;;;;;;;;;;;;;;2215887;58;1921;-17
2023/11/27 09:35:51;;;;;;;;;;;;;;;;;;2216363;59;2299;-17
2023/11/27 09:38:22;;;;;;;;;;;;;;;;;;2211536;58;1810;-17
2023/11/27 09:40:52;;;;;;;;;;;;;;;;;;2216233;59;1728;-17
2023/11/27 09:43:22;;;;;;;;;;;;;;;;;;2211492;66;2230;-17
2023/11/27 09:45:55;;;;;;;;;;;;;;;;;;2209369;66;2062;-17
2023/11/27 09:48:26;;;;;;;;;;;;;;;;;;2211964;59;2903;-17
2023/11/27 09:50:57;;;;;;;;;;;;;;;;;;2216368;58;2388;-17
2023/11/27 09:53:31;;;;;;;;;;;;;;;;;;2215350;58;1820;-17
2023/11/27 09:56:02;;;;;;;;;;;;;;;;;;2207955;66;2073;-17
2023/11/27 09:58:34;;;;;;;;;;;;;;;;;;2217344;58;2199;-17
2023/11/27 10:01:05;;;;;;;;;;;;;;;;;;2210635;59;1876;-17
2023/11/27 10:03:40;;;;;;;;;;;;;;;;;;2215632;58;2196;-17
2023/11/27 10:06:11;;;;;;;;;;;;;;;;;;2211008;58;2055;-17
2023/11/27 10:08:42;;;;;;;;;;;;;;;;;;2215070;58;2970;-17
2023/11/27 10:11:13;;;;;;;;;;;;;;;;;;2214181;58;2363;-18
2023/11/27 10:13:44;;;;;;;;;;;;;;;;;;2208822;66;1849;-17
2023/11/27 10:16:14;;;;;;;;;;;;;;;;;;2214099;58;1834;-17
2023/11/27 10:18:48;;;;;;;;;;;;;;;;;;2211720;62;1836;-17
2023/11/27 10:21:21;;;;;;;;;;;;;;;;;;2211394;66;1836;-17
2023/11/27 10:23:51;;;;;;;;;;;;;;;;;;2212792;58;2321;-17
2023/11/27 10:26:21;;;;;;;;;;;;;;;;;;2208241;66;1851;-17
2023/11/27 10:28:52;;;;;;;;;;;;;;;;;;2216083;58;2343;-18
2023/11/27 10:31:22;;;;;;;;;;;;;;;;;;2214919;66;2370;-17
2023/11/27 10:33:53;;;;;;;;;;;;;;;;;;2214958;58;2501;-17
2023/11/27 10:36:24;;;;;;;;;;;;;;;;;;2208389;58;3763;-17
2023/11/27 10:38:59;;;;;;;;;;;;;;;;;;2214605;58;3048;-17
2023/11/27 10:41:29;;;;;;;;;;;;;;;;;;2210178;59;1718;-18
2023/11/27 10:44:00;;;;;;;;;;;;;;;;;;2211171;59;2462;-17
2023/11/27 10:46:31;;;;;;;;;;;;;;;;;;2214929;66;2957;-17
2023/11/27 10:49:01;;;;;;;;;;;;;;;;;;2213874;58;2875;-17
2023/11/27 10:51:33;;;;;;;;;;;;;;;;;;2209141;66;2381;-17
2023/11/27 10:54:03;;;;;;;;;;;;;;;;;;2215762;53;2617;-24
2023/11/27 10:56:34;;;;;;;;;;;;;;;;;;2207555;59;1880;-24
2023/11/27 10:59:09;;;;;;;;;;;;;;;;;;2210730;58;2933;-24
2023/11/27 11:01:43;;;;;;;;;;;;;;;;;;2212517;58;2038;-24
2023/11/27 11:04:19;;;;;;;;;;;;;;;;;;2208142;59;2351;-24
2023/11/27 11:06:52;;;;;;;;;;;;;;;;;;2212428;58;1953;-24
2023/11/27 11:09:25;;;;;;;;;;;;;;;;;;2206151;66;2372;-24
2023/11/27 11:11:58;;;;;;;;;;;;;;;;;;2208426;59;2026;-24
2023/11/27 11:14:28;;;;;;;;;;;;;;;;;;2210475;58;3112;-24
2023/11/27 11:17:17;;;;;;;;;;;;;;;;;;2207687;66;1854;-29
2023/11/27 11:19:47;;;;;;;;;;;;;;;;;;2210685;58;2552;-24
2023/11/27 11:22:24;;;;;;;;;;;;;;;;;;2208402;59;2004;-24
2023/11/27 11:25:00;;;;;;;;;;;;;;;;;;2212121;66;1709;-24
2023/11/27 11:27:51;;;;;;;;;;;;;;;;;;2211416;58;2008;-24
2023/11/27 11:30:21;;;;;;;;;;;;;;;;;;2208945;59;2357;-24
2023/11/27 11:32:52;;;;;;;;;;;;;;;;;;2209118;59;2349;-24
2023/11/27 11:35:22;;;;;;;;;;;;;;;;;;2212692;66;1793;-24
2023/11/27 11:37:52;;;;;;;;;;;;;;;;;;2205637;66;1862;-24
2023/11/27 11:40:35;;;;;;;;;;;;;;;;;;2208342;58;1874;-24
2023/11/27 11:43:07;;;;;;;;;;;;;;;;;;2208890;66;2074;-24
2023/11/27 11:45:39;;;;;;;;;;;;;;;;;;2213635;58;1804;-24
2023/11/27 11:48:14;;;;;;;;;;;;;;;;;;2212337;66;2299;-24
2023/11/27 11:50:46;;;;;;;;;;;;;;;;;;2212676;66;2156;-24
2023/11/27 11:53:18;;;;;;;;;;;;;;;;;;2207986;66;1820;-24
2023/11/27 11:55:53;;;;;;;;;;;;;;;;;;2213388;66;2247;-24
2023/11/27 11:58:23;;;;;;;;;;;;;;;;;;2212821;59;2114;-24
2023/11/27 12:00:59;;;;;;;;;;;;;;;;;;2212894;66;1807;-24
2023/11/27 12:03:32;;;;;;;;;;;;;;;;;;2212685;58;2361;-24
2023/11/27 12:06:03;;;;;;;;;;;;;;;;;;2212998;66;2095;-24
2023/11/27 12:08:33;;;;;;;;;;;;;;;;;;2212710;66;2443;-24
2023/11/27 12:11:03;;;;;;;;;;;;;;;;;;2209523;66;2514;-24
2023/11/27 12:13:33;;;;;;;;;;;;;;;;;;2213224;66;1968;-24
2023/11/27 12:16:11;;;;;;;;;;;;;;;;;;2208789;66;1881;-24
2023/11/27 12:18:47;;;;;;;;;;;;;;;;;;2212940;66;1747;-24
2023/11/27 12:21:21;;;;;;;;;;;;;;;;;;2209046;59;2616;-24
2023/11/27 12:23:53;;;;;;;;;;;;;;;;;;2213005;66;1972;-24
2023/11/27 12:26:23;;;;;;;;;;;;;;;;;;2212462;58;2007;-24
2023/11/27 12:28:54;;;;;;;;;;;;;;;;;;2213166;58;2552;-24
2023/11/27 12:31:27;;;;;;;;;;;;;;;;;;2212982;66;2443;-24
2023/11/27 12:34:02;;;;;;;;;;;;;;;;;;2213331;58;1893;-24
2023/11/27 12:36:33;;;;;;;;;;;;;;;;;;2212445;66;2445;-24
2023/11/27 12:39:10;;;;;;;;;;;;;;;;;;2209660;59;2035;-24
2023/11/27 12:41:43;;;;;;;;;;;;;;;;;;2212638;58;2153;-24
2023/11/27 12:44:15;;;;;;;;;;;;;;;;;;2212206;66;1804;-24
2023/11/27 12:46:52;;;;;;;;;;;;;;;;;;2212443;66;1887;-24
2023/11/27 12:49:23;;;;;;;;;;;;;;;;;;2212443;66;1973;-24
2023/11/27 12:51:57;;;;;;;;;;;;;;;;;;2213249;66;2349;-24
2023/11/27 12:54:27;;;;;;;;;;;;;;;;;;2209912;59;1947;-24
2023/11/27 12:57:00;;;;;;;;;;;;;;;;;;2208941;66;2043;-24
2023/11/27 12:59:30;;;;;;;;;;;;;;;;;;2212313;66;1802;-24
2023/11/27 13:02:00;;;;;;;;;;;;;;;;;;2213292;59;2297;-24
2023/11/27 13:04:37;;;;;;;;;;;;;;;;;;2212123;59;1842;-24
2023/11/27 13:07:10;;;;;;;;;;;;;;;;;;2212096;66;1929;-24
2023/11/27 13:09:40;;;;;;;;;;;;;;;;;;2209858;66;2486;-24
2023/11/27 13:12:18;;;;;;;;;;;;;;;;;;2209336;66;1824;-24
2023/11/27 13:14:51;;;;;;;;;;;;;;;;;;2213289;66;2176;-24
2023/11/27 13:17:22;;;;;;;;;;;;;;;;;;2208537;66;2234;-24
2023/11/27 13:19:53;;;;;;;;;;;;;;;;;;2209225;66;2124;-24
2023/11/27 13:22:24;;;;;;;;;;;;;;;;;;2211871;58;2936;-24
2023/11/27 13:24:54;;;;;;;;;;;;;;;;;;2209433;59;2380;-24
2023/11/27 13:27:24;;;;;;;;;;;;;;;;;;2209794;58;2244;-24
2023/11/27 13:29:55;;;;;;;;;;;;;;;;;;2210907;58;2515;-24
2023/11/27 13:32:25;;;;;;;;;;;;;;;;;;2207570;59;2485;-24
2023/11/27 13:34:55;;;;;;;;;;;;;;;;;;2207424;58;2820;-24
2023/11/27 13:37:27;;;;;;;;;;;;;;;;;;2209932;58;2526;-24
2023/11/27 13:39:58;;;;;;;;;;;;;;;;;;2208228;59;2051;-24
2023/11/27 13:42:30;;;;;;;;;;;;;;;;;;2208502;66;2365;-24
2023/11/27 13:45:00;;;;;;;;;;;;;;;;;;2208650;59;3592;-24
2023/11/27 13:47:33;;;;;;;;;;;;;;;;;;2206598;59;2234;-24
2023/11/27 13:50:06;;;;;;;;;;;;;;;;;;2209207;66;2549;-24
2023/11/27 13:52:38;;;;;;;;;;;;;;;;;;2205979;66;2543;-24
2023/11/27 13:55:10;;;;;;;;;;;;;;;;;;2209080;66;2357;-25
2023/11/27 13:57:41;;;;;;;;;;;;;;;;;;2211645;58;2403;-24
2023/11/27 14:00:22;;;;;;;;;;;;;;;;;;2210328;59;2069;-24
2023/11/27 14:02:52;;;;;;;;;;;;;;;;;;2210991;58;2416;-24
2023/11/27 14:05:25;;;;;;;;;;;;;;;;;;2208067;66;1904;-25
2023/11/27 14:08:01;;;;;;;;;;;;;;;;;;2210050;59;2553;-24
2023/11/27 14:10:54;;;;;;;;;;;;;;;;;;2205362;59;2660;-24
2023/11/27 14:13:22;;;;;;;;;;;;;;;;;;2205246;59;2580;-24
2023/11/27 14:15:52;;;;;;;;;;;;;;;;;;2210947;58;2214;-25
2023/11/27 14:22:54;;;;;;;;;;;;;;;;;;2211371;59;1746;-24
2023/11/27 14:23:57;;;;;;;;;;;;;;;;;;2212547;59;2126;-24
2023/11/27 14:29:22;;;;;;;;;;;;;;;;;;2211899;58;2302;-24
2023/11/27 14:31:55;;;;;;;;;;;;;;;;;;2212713;58;2196;-24
2023/11/27 14:34:25;;;;;;;;;;;;;;;;;;2212217;66;2323;-24
2023/11/27 14:36:56;;;;;;;;;;;;;;;;;;2212609;66;2033;-24
2023/11/27 14:39:30;;;;;;;;;;;;;;;;;;2208033;59;2408;-24
2023/11/27 14:42:00;;;;;;;;;;;;;;;;;;2211992;58;2855;-24
2023/11/27 14:44:30;;;;;;;;;;;;;;;;;;2210609;66;2298;-24
2023/11/27 14:47:00;;;;;;;;;;;;;;;;;;2208273;59;2477;-24
2023/11/27 14:49:31;;;;;;;;;;;;;;;;;;2211011;59;2237;-24
2023/11/27 14:52:07;;;;;;;;;;;;;;;;;;2209216;66;1789;-24
2023/11/27 14:54:41;;;;;;;;;;;;;;;;;;2211256;59;1827;-24
2023/11/27 14:57:12;;;;;;;;;;;;;;;;;;2211769;58;3385;-24
2023/11/27 14:59:44;;;;;;;;;;;;;;;;;;2208721;59;2377;-24
2023/11/27 15:02:20;;;;;;;;;;;;;;;;;;2208446;59;2454;-24
2023/11/27 15:04:51;;;;;;;;;;;;;;;;;;2212123;58;1858;-24
2023/11/27 15:07:24;;;;;;;;;;;;;;;;;;2210977;66;2431;-24
2023/11/27 15:09:55;;;;;;;;;;;;;;;;;;2212435;66;2017;-24
2023/11/27 15:12:32;;;;;;;;;;;;;;;;;;2211813;66;1828;-24
2023/11/27 15:15:05;;;;;;;;;;;;;;;;;;2212970;58;2080;-24
2023/11/27 15:17:36;;;;;;;;;;;;;;;;;;2212055;63;1864;-24
2023/11/27 15:20:07;;;;;;;;;;;;;;;;;;2211579;59;1669;-24
2023/11/27 15:22:38;;;;;;;;;;;;;;;;;;2211598;58;2775;-24
2023/11/27 15:25:09;;;;;;;;;;;;;;;;;;2208275;59;2677;-24
2023/11/27 15:27:39;;;;;;;;;;;;;;;;;;2211558;58;2448;-24
2023/11/27 15:30:10;;;;;;;;;;;;;;;;;;2212150;58;2334;-24
2023/11/27 15:32:41;;;;;;;;;;;;;;;;;;2212019;58;1773;-24
2023/11/27 15:35:11;;;;;;;;;;;;;;;;;;2211452;66;2472;-24
2023/11/27 15:37:43;;;;;;;;;;;;;;;;;;2211438;59;2110;-24
2023/11/27 15:40:20;;;;;;;;;;;;;;;;;;2212487;58;1838;-24
2023/11/27 15:42:50;;;;;;;;;;;;;;;;;;2212732;59;1727;-24
2023/11/27 15:45:21;;;;;;;;;;;;;;;;;;2212016;66;1882;-24
2023/11/27 15:47:52;;;;;;;;;;;;;;;;;;2212006;66;2584;-24
2023/11/27 15:50:29;;;;;;;;;;;;;;;;;;2205226;59;2493;-24
2023/11/27 15:53:00;;;;;;;;;;;;;;;;;;2206117;59;2502;-24
2023/11/27 15:55:30;;;;;;;;;;;;;;;;;;2207653;58;2502;-24
2023/11/27 15:58:01;;;;;;;;;;;;;;;;;;2212333;59;2188;-24
2023/11/27 16:00:32;;;;;;;;;;;;;;;;;;2205660;59;2625;-24
2023/11/27 16:03:02;;;;;;;;;;;;;;;;;;2212292;58;2179;-24
2023/11/27 16:05:33;;;;;;;;;;;;;;;;;;2207857;66;2614;-24
2023/11/27 16:08:05;;;;;;;;;;;;;;;;;;2208928;66;2282;-24
2023/11/27 16:10:36;;;;;;;;;;;;;;;;;;2211499;66;2248;-24
2023/11/27 16:13:08;;;;;;;;;;;;;;;;;;2209147;66;2172;-24
2023/11/27 16:15:44;;;;;;;;;;;;;;;;;;2211912;59;2649;-24
2023/11/27 16:18:23;;;;;;;;;;;;;;;;;;2211983;66;2260;-24
2023/11/27 16:20:54;;;;;;;;;;;;;;;;;;2213060;59;2376;-24
2023/11/27 16:23:27;;;;;;;;;;;;;;;;;;2208082;59;2344;-24
2023/11/27 16:25:57;;;;;;;;;;;;;;;;;;2208557;66;1778;-24
2023/11/27 16:28:27;;;;;;;;;;;;;;;;;;2208479;59;2135;-24
2023/11/27 16:30:58;;;;;;;;;;;;;;;;;;2209640;59;2464;-24
2023/11/27 16:33:32;;;;;;;;;;;;;;;;;;2212447;58;2336;-24
2023/11/27 16:36:03;;;;;;;;;;;;;;;;;;2213629;66;2464;-24
2023/11/27 16:38:33;;;;;;;;;;;;;;;;;;2213401;58;2795;-24
2023/11/27 16:41:05;;;;;;;;;;;;;;;;;;2207005;59;2053;-24
2023/11/27 16:43:36;;;;;;;;;;;;;;;;;;2212914;58;2476;-24
2023/11/27 16:46:09;;;;;;;;;;;;;;;;;;2212076;59;2179;-25
2023/11/27 16:48:41;;;;;;;;;;;;;;;;;;2207106;59;2457;-24
2023/11/27 16:51:12;;;;;;;;;;;;;;;;;;2211921;59;2586;-24
2023/11/27 16:53:42;;;;;;;;;;;;;;;;;;2212039;58;2038;-24
2023/11/27 16:56:12;;;;;;;;;;;;;;;;;;2212343;59;2175;-25
2023/11/27 16:58:43;;;;;;;;;;;;;;;;;;2208188;59;2237;-25
2023/11/27 17:01:16;;;;;;;;;;;;;;;;;;2212842;66;2225;-24
2023/11/27 17:03:47;;;;;;;;;;;;;;;;;;2212867;59;2339;-25
2023/11/27 17:06:18;;;;;;;;;;;;;;;;;;2211401;58;2579;-24
2023/11/27 17:08:48;;;;;;;;;;;;;;;;;;2211343;59;2347;-24
2023/11/27 17:11:18;;;;;;;;;;;;;;;;;;2209193;66;2699;-24
2023/11/27 17:13:49;;;;;;;;;;;;;;;;;;2209028;66;1827;-24
2023/11/27 17:16:19;;;;;;;;;;;;;;;;;;2208380;58;1769;-24
2023/11/27 17:18:50;;;;;;;;;;;;;;;;;;2212242;58;2514;-24
2023/11/27 17:21:20;;;;;;;;;;;;;;;;;;2212607;66;2057;-24
2023/11/27 17:23:50;;;;;;;;;;;;;;;;;;2212435;58;2093;-25
2023/11/27 17:26:21;;;;;;;;;;;;;;;;;;2206040;59;2359;-24
2023/11/27 17:28:51;;;;;;;;;;;;;;;;;;2212902;58;2420;-24
2023/11/27 17:31:22;;;;;;;;;;;;;;;;;;2208862;58;2078;-24
2023/11/27 17:33:52;;;;;;;;;;;;;;;;;;2208926;58;2450;-24
2023/11/27 17:36:22;;;;;;;;;;;;;;;;;;2212133;58;1907;-24